Time;durP1;ratioP1;P1;durP2;ratioP2;P2;SDS_P1;SDS_P2;PMS_P1;PMS_P2;Temp;Humidity;BMP_temperature;BMP_pressure;BME280_temperature;BME280_humidity;BME280_pressure;Samples;Min_cycle;Max_cycle;Signal;HPM_P1;HPM_P2
2024/03/23 00:00:02;;;;;;;1999.90;999.90;;;10.30;99.90;;;;;;5031709;28;20029;-71
2024/03/23 00:02:28;;;;;;;1999.90;999.90;;;10.30;99.90;;;;;;5032358;28;20511;-67
2024/03/23 00:04:55;;;;;;;1999.90;999.90;;;10.30;99.90;;;;;;5032500;28;20030;-67
2024/03/23 00:07:22;;;;;;;1999.90;999.90;;;10.30;99.90;;;;;;5032258;28;20468;-70
2024/03/23 00:09:49;;;;;;;1999.90;999.90;;;10.30;99.90;;;;;;5032296;28;20029;-71
2024/03/23 00:12:15;;;;;;;1999.90;999.90;;;10.30;99.90;;;;;;5032343;28;20040;-71
2024/03/23 00:14:42;;;;;;;1999.90;999.90;;;10.20;99.90;;;;;;5032576;28;20026;-71
2024/03/23 00:17:08;;;;;;;1999.90;999.90;;;10.10;99.90;;;;;;5032813;28;20116;-67
2024/03/23 00:19:35;;;;;;;1999.90;999.90;;;10.10;99.90;;;;;;5035809;28;20507;-71
2024/03/23 00:22:01;;;;;;;1999.90;999.90;;;10.10;99.90;;;;;;5034514;28;20037;-67
2024/03/23 00:24:28;;;;;;;1999.90;999.90;;;10.00;99.90;;;;;;5035009;28;20029;-67
2024/03/23 00:26:54;;;;;;;1999.90;999.90;;;10.00;99.90;;;;;;5035800;28;20108;-70
2024/03/23 00:29:21;;;;;;;1999.90;999.90;;;10.00;99.90;;;;;;5036011;28;20496;-67
2024/03/23 00:31:47;;;;;;;1999.90;999.90;;;10.00;99.90;;;;;;5035723;28;20037;-67
2024/03/23 00:34:14;;;;;;;1999.90;999.90;;;10.00;99.90;;;;;;5035775;28;20040;-71
2024/03/23 00:36:40;;;;;;;1999.90;999.90;;;10.00;99.90;;;;;;5035676;28;20552;-71
2024/03/23 00:39:08;;;;;;;1999.90;999.90;;;10.00;99.90;;;;;;5035926;28;20021;-71
2024/03/23 00:41:35;;;;;;;1999.90;999.90;;;10.10;99.90;;;;;;5035385;28;20030;-67
2024/03/23 00:44:01;;;;;;;1999.90;999.90;;;10.10;99.90;;;;;;5035734;28;20044;-66
2024/03/23 00:46:28;;;;;;;1999.90;999.90;;;10.20;99.90;;;;;;5035566;28;20017;-71
2024/03/23 00:48:55;;;;;;;1999.90;999.90;;;10.10;99.90;;;;;;5035248;28;20021;-67
2024/03/23 00:51:21;;;;;;;1999.90;999.90;;;10.00;99.90;;;;;;5035633;28;20377;-66
2024/03/23 00:53:47;;;;;;;1999.90;999.90;;;9.80;99.90;;;;;;5035663;28;20036;-66
2024/03/23 00:56:12;;;;;;;1999.90;999.90;;;9.70;99.90;;;;;;5035271;28;20026;-70
2024/03/23 00:58:38;;;;;;;1999.90;999.90;;;9.60;99.90;;;;;;5035135;28;20056;-66
2024/03/23 01:01:03;;;;;;;1999.90;999.90;;;9.50;99.90;;;;;;5035089;28;20025;-67
2024/03/23 01:03:30;;;;;;;1999.90;999.90;;;9.40;99.90;;;;;;5034491;28;20025;-71
2024/03/23 01:06:03;;;;;;;1999.90;999.90;;;9.40;99.90;;;;;;5035376;28;20076;-71
2024/03/23 01:08:29;;;;;;;1999.90;999.90;;;9.30;99.90;;;;;;5035119;28;20025;-70
2024/03/23 01:11:02;;;;;;;1999.90;999.90;;;9.30;99.90;;;;;;5034801;28;20087;-70
2024/03/23 01:13:28;;;;;;;1999.90;999.90;;;9.20;99.90;;;;;;5035295;28;20029;-70
2024/03/23 01:15:55;;;;;;;1999.90;999.90;;;9.20;99.90;;;;;;5035037;28;20489;-71
2024/03/23 01:18:21;;;;;;;1999.90;999.90;;;9.10;99.90;;;;;;5034801;28;20061;-70
2024/03/23 01:20:47;;;;;;;1999.90;999.90;;;9.10;99.90;;;;;;5034636;28;20026;-66
2024/03/23 01:23:13;;;;;;;1999.90;999.90;;;9.10;99.90;;;;;;5034474;28;20025;-71
2024/03/23 01:25:39;;;;;;;1999.90;999.90;;;9.00;99.90;;;;;;5034144;28;20025;-70
2024/03/23 01:28:08;;;;;;;1999.90;999.90;;;9.00;99.90;;;;;;5034160;28;20032;-70
2024/03/23 01:30:36;;;;;;;1999.90;999.90;;;9.00;99.90;;;;;;5035209;28;20022;-70
2024/03/23 01:33:02;;;;;;;1999.90;999.90;;;9.00;99.90;;;;;;5034650;28;20025;-66
2024/03/23 01:35:28;;;;;;;1999.90;999.90;;;8.90;99.90;;;;;;5034488;28;20072;-70
2024/03/23 01:37:54;;;;;;;1999.90;999.90;;;9.00;99.90;;;;;;5034514;28;20037;-66
2024/03/23 01:40:20;;;;;;;1999.90;999.90;;;9.00;99.90;;;;;;5034556;28;20029;-66
2024/03/23 01:43:07;;;;;;;1999.90;999.90;;;8.90;99.90;;;;;;5034464;28;20025;-71
2024/03/23 01:45:33;;;;;;;1999.90;999.90;;;8.90;99.90;;;;;;5034444;28;20609;-70
2024/03/23 01:47:59;;;;;;;1999.90;999.90;;;8.90;99.90;;;;;;5034447;28;20116;-66
2024/03/23 01:50:26;;;;;;;1999.90;999.90;;;8.80;99.90;;;;;;5034856;28;20040;-66
2024/03/23 01:52:52;;;;;;;1999.90;999.90;;;8.90;99.90;;;;;;5034043;28;20044;-67
2024/03/23 01:55:17;;;;;;;1999.90;999.90;;;8.80;99.90;;;;;;5034256;28;20029;-71
2024/03/23 01:57:43;;;;;;;1999.90;999.90;;;8.80;99.90;;;;;;5034139;28;20033;-71
2024/03/23 02:00:12;;;;;;;1999.90;999.90;;;8.80;99.90;;;;;;5033946;28;20075;-71
2024/03/23 02:02:47;;;;;;;1999.90;999.90;;;8.80;99.90;;;;;;5034306;28;20021;-66
2024/03/23 02:05:13;;;;;;;1999.90;999.90;;;8.70;99.90;;;;;;5033733;28;20026;-71
2024/03/23 02:07:40;;;;;;;1999.90;999.90;;;8.70;99.90;;;;;;5033911;28;20028;-71
2024/03/23 02:10:07;;;;;;;1999.90;999.90;;;8.70;99.90;;;;;;5034104;28;20036;-66
2024/03/23 02:12:33;;;;;;;1999.90;999.90;;;8.70;99.90;;;;;;5033763;28;20510;-71
2024/03/23 02:14:59;;;;;;;1999.90;999.90;;;8.60;99.90;;;;;;5034064;28;20060;-70
2024/03/23 02:17:24;;;;;;;1999.90;999.90;;;8.60;99.90;;;;;;5033790;28;20053;-70
2024/03/23 02:19:50;;;;;;;1999.90;999.90;;;8.60;99.90;;;;;;5032857;28;20108;-66
2024/03/23 02:22:16;;;;;;;1999.90;999.90;;;8.60;99.90;;;;;;5033392;28;20445;-66
2024/03/23 02:24:42;;;;;;;1999.90;999.90;;;8.60;99.90;;;;;;5032623;28;20115;-70
2024/03/23 02:27:08;;;;;;;1999.90;999.90;;;8.50;99.90;;;;;;5033363;28;20032;-66
2024/03/23 02:29:34;;;;;;;1999.90;999.90;;;8.50;99.90;;;;;;5033689;28;20025;-66
2024/03/23 02:32:00;;;;;;;1999.90;999.90;;;8.50;99.90;;;;;;5033571;28;20029;-71
2024/03/23 02:34:25;;;;;;;1999.90;999.90;;;8.50;99.90;;;;;;5033572;28;20133;-71
2024/03/23 02:36:51;;;;;;;1999.90;999.90;;;8.50;99.90;;;;;;5033306;28;20446;-70
2024/03/23 02:39:16;;;;;;;1999.90;999.90;;;8.50;99.90;;;;;;5032800;28;20061;-66
2024/03/23 02:41:42;;;;;;;1999.90;999.90;;;8.50;99.90;;;;;;5032942;28;20021;-71
2024/03/23 02:44:11;;;;;;;1999.90;999.90;;;8.40;99.90;;;;;;5033407;28;20440;-67
2024/03/23 02:46:37;;;;;;;1999.90;999.90;;;8.40;99.90;;;;;;5033293;28;20030;-71
2024/03/23 02:49:04;;;;;;;1999.90;999.90;;;8.40;99.90;;;;;;5033202;28;20036;-66
2024/03/23 02:51:30;;;;;;;1999.90;999.90;;;8.40;99.90;;;;;;5033524;28;20037;-71
2024/03/23 02:53:56;;;;;;;1999.90;999.90;;;8.40;99.90;;;;;;5033444;28;20092;-66
2024/03/23 02:56:21;;;;;;;1999.90;999.90;;;8.40;99.90;;;;;;5032923;28;20040;-66
2024/03/23 02:58:47;;;;;;;1999.90;999.90;;;8.40;99.90;;;;;;5033056;28;20049;-66
2024/03/23 03:01:13;;;;;;;1999.90;999.90;;;8.30;99.90;;;;;;5032931;28;20033;-70
2024/03/23 03:03:38;;;;;;;1999.90;999.90;;;8.30;99.90;;;;;;5032951;28;20025;-66
2024/03/23 03:06:04;;;;;;;1999.90;999.90;;;8.30;99.90;;;;;;5032913;28;20025;-66
2024/03/23 03:08:30;;;;;;;1999.90;999.90;;;8.30;99.90;;;;;;5032572;28;20021;-70
2024/03/23 03:10:55;;;;;;;1999.90;999.90;;;8.30;99.90;;;;;;5033012;28;20040;-66
2024/03/23 03:13:21;;;;;;;1999.90;999.90;;;8.30;99.90;;;;;;5032870;28;20396;-67
2024/03/23 03:15:47;;;;;;;1999.90;999.90;;;8.30;99.90;;;;;;5032935;28;20089;-71
2024/03/23 03:18:12;;;;;;;1999.90;999.90;;;8.30;99.90;;;;;;5031683;28;20060;-70
2024/03/23 03:20:39;;;;;;;1999.90;999.90;;;8.20;99.90;;;;;;5032658;28;20026;-70
2024/03/23 03:23:05;;;;;;;1999.90;999.90;;;8.20;99.90;;;;;;5032256;28;20022;-71
2024/03/23 03:25:31;;;;;;;1999.90;999.90;;;8.20;99.90;;;;;;5032062;28;20111;-70
2024/03/23 03:27:56;;;;;;;1999.90;999.90;;;8.20;99.90;;;;;;5032661;28;20065;-66
2024/03/23 03:30:22;;;;;;;1999.90;999.90;;;8.20;99.90;;;;;;5032596;28;20480;-66
2024/03/23 03:32:49;;;;;;;1999.90;999.90;;;8.20;99.90;;;;;;5032771;28;20033;-66
2024/03/23 03:35:14;;;;;;;1999.90;999.90;;;8.20;99.90;;;;;;5032407;28;20036;-66
2024/03/23 03:37:40;;;;;;;1999.90;999.90;;;8.30;99.90;;;;;;5032759;28;20029;-70
2024/03/23 03:40:08;;;;;;;1999.90;999.90;;;8.30;99.90;;;;;;5032406;28;20388;-71
2024/03/23 03:42:34;;;;;;;1999.90;999.90;;;8.20;99.90;;;;;;5032572;28;20021;-66
2024/03/23 03:45:00;;;;;;;1999.90;999.90;;;8.20;99.90;;;;;;5032593;28;20021;-66
2024/03/23 03:47:25;;;;;;;1999.90;999.90;;;8.20;99.90;;;;;;5032510;28;20388;-66
2024/03/23 03:49:51;;;;;;;1999.90;999.90;;;8.10;99.90;;;;;;5032864;28;20033;-71
2024/03/23 03:52:16;;;;;;;1999.90;999.90;;;8.10;99.90;;;;;;5035312;28;20028;-66
2024/03/23 03:54:42;;;;;;;1999.90;999.90;;;8.10;99.90;;;;;;5036728;28;20036;-70
2024/03/23 03:57:08;;;;;;;1999.90;999.90;;;8.10;99.90;;;;;;5036441;28;20018;-66
2024/03/23 03:59:34;;;;;;;1999.90;999.90;;;8.00;99.90;;;;;;5036327;28;20028;-66
2024/03/23 04:02:00;;;;;;;1999.90;999.90;;;8.00;99.90;;;;;;5036927;28;20076;-71
2024/03/23 04:04:25;;;;;;;1999.90;999.90;;;7.90;99.90;;;;;;5036179;28;20036;-66
2024/03/23 04:07:01;;;;;;;1999.90;999.90;;;7.90;99.90;;;;;;5035392;28;20029;-67
2024/03/23 04:09:27;;;;;;;1999.90;999.90;;;7.90;99.90;;;;;;5036252;28;20022;-66
2024/03/23 04:11:53;;;;;;;1999.90;999.90;;;7.80;99.90;;;;;;5036431;28;20385;-70
2024/03/23 04:14:19;;;;;;;1999.90;999.90;;;7.80;99.90;;;;;;5036057;28;20029;-71
2024/03/23 04:16:45;;;;;;;1999.90;999.90;;;7.70;99.90;;;;;;5036165;28;20164;-66
2024/03/23 04:19:10;;;;;;;1999.90;999.90;;;7.70;99.90;;;;;;5035844;28;20107;-67
2024/03/23 04:21:37;;;;;;;1999.90;999.90;;;7.70;99.90;;;;;;5035366;28;20064;-71
2024/03/23 04:24:04;;;;;;;1999.90;999.90;;;7.70;99.90;;;;;;5036010;28;20107;-66
2024/03/23 04:26:29;;;;;;;1999.90;999.90;;;7.60;99.90;;;;;;5034903;28;20029;-66
2024/03/23 04:28:55;;;;;;;1999.90;999.90;;;7.50;99.90;;;;;;5035605;28;20396;-66
2024/03/23 04:31:21;;;;;;;1999.90;999.90;;;7.50;99.90;;;;;;5035353;28;20551;-67
2024/03/23 04:33:47;;;;;;;1999.90;999.90;;;7.50;99.90;;;;;;5035575;28;20041;-66
2024/03/23 04:36:12;;;;;;;1999.90;999.90;;;7.50;99.90;;;;;;5035243;28;20036;-66
2024/03/23 04:38:38;;;;;;;1999.90;999.90;;;7.50;99.90;;;;;;5035896;28;20112;-70
2024/03/23 04:41:04;;;;;;;1999.90;999.90;;;7.40;99.90;;;;;;5035438;28;20112;-66
2024/03/23 04:43:30;;;;;;;1999.90;999.90;;;7.40;99.90;;;;;;5035551;28;20100;-71
2024/03/23 04:45:55;;;;;;;1999.90;999.90;;;7.40;99.90;;;;;;5035198;28;20121;-66
2024/03/23 04:48:23;;;;;;;1999.90;999.90;;;7.40;99.90;;;;;;5034146;28;20037;-71
2024/03/23 04:50:49;;;;;;;1999.90;999.90;;;7.40;99.90;;;;;;5035827;28;20032;-66
2024/03/23 04:53:18;;;;;;;1999.90;999.90;;;7.30;99.90;;;;;;5035489;28;20036;-66
2024/03/23 04:55:44;;;;;;;1999.90;999.90;;;7.40;99.90;;;;;;5035630;28;20029;-71
2024/03/23 04:58:09;;;;;;;1999.90;999.90;;;7.40;99.90;;;;;;5035189;28;20400;-71
2024/03/23 05:00:35;;;;;;;1999.90;999.90;;;7.40;99.90;;;;;;5035242;28;20025;-66
2024/03/23 05:03:00;;;;;;;1999.90;999.90;;;7.40;99.90;;;;;;5034725;28;20156;-71
2024/03/23 05:05:26;;;;;;;1999.90;999.90;;;7.50;99.90;;;;;;5035331;28;20030;-66
2024/03/23 05:07:51;;;;;;;1999.90;999.90;;;7.40;99.90;;;;;;5035352;28;20029;-66
2024/03/23 05:10:17;;;;;;;1999.90;999.90;;;7.50;99.90;;;;;;5034988;28;20468;-70
2024/03/23 05:12:44;;;;;;;1999.90;999.90;;;7.60;99.90;;;;;;5035161;28;20080;-71
2024/03/23 05:15:10;;;;;;;1999.90;999.90;;;7.60;99.90;;;;;;5033377;28;20522;-66
2024/03/23 05:17:37;;;;;;;1999.90;999.90;;;7.60;99.90;;;;;;5034048;28;20077;-67
2024/03/23 05:20:03;;;;;;;1999.90;999.90;;;7.60;99.90;;;;;;5033375;28;20025;-70
2024/03/23 05:22:29;;;;;;;1999.90;999.90;;;7.60;99.90;;;;;;5034891;28;20048;-70
2024/03/23 05:24:54;;;;;;;1999.90;999.90;;;7.60;99.90;;;;;;5033561;28;20488;-66
2024/03/23 05:27:20;;;;;;;1999.90;999.90;;;7.50;99.90;;;;;;5034783;28;20025;-70
2024/03/23 05:29:47;;;;;;;1999.90;999.90;;;7.50;99.90;;;;;;5034663;28;20068;-70
2024/03/23 05:32:12;;;;;;;1999.90;999.90;;;7.50;99.90;;;;;;5034782;28;20060;-66
2024/03/23 05:34:38;;;;;;;1999.90;999.90;;;7.40;99.90;;;;;;5034129;28;20485;-71
2024/03/23 05:37:04;;;;;;;1999.90;999.90;;;7.40;99.90;;;;;;5034257;28;20033;-66
2024/03/23 05:39:30;;;;;;;1999.90;999.90;;;7.40;99.90;;;;;;5034821;28;20024;-66
2024/03/23 05:41:55;;;;;;;1999.90;999.90;;;7.30;99.90;;;;;;5034653;28;20025;-70
2024/03/23 05:44:21;;;;;;;1999.90;999.90;;;7.30;99.90;;;;;;5034340;28;20022;-66
2024/03/23 05:46:48;;;;;;;1999.90;999.90;;;7.30;99.90;;;;;;5034741;28;20392;-66
2024/03/23 05:49:15;;;;;;;1999.90;999.90;;;7.30;99.90;;;;;;5034287;28;20037;-71
2024/03/23 05:51:41;;;;;;;1999.90;999.90;;;7.30;99.90;;;;;;5034627;28;20100;-66
2024/03/23 05:54:06;;;;;;;1999.90;999.90;;;7.30;99.90;;;;;;5034314;28;20167;-70
2024/03/23 05:56:32;;;;;;;1999.90;999.90;;;7.20;99.90;;;;;;5034148;28;20037;-66
2024/03/23 05:58:57;;;;;;;1999.90;999.90;;;7.20;99.90;;;;;;5033230;28;20678;-66
2024/03/23 06:01:23;;;;;;;1999.90;999.90;;;7.20;99.90;;;;;;5034028;28;20021;-66
2024/03/23 06:03:49;;;;;;;1999.90;999.90;;;7.20;99.90;;;;;;5034475;28;20033;-66
2024/03/23 06:06:14;;;;;;;1999.90;999.90;;;7.20;99.90;;;;;;5033874;28;20396;-66
2024/03/23 06:08:40;;;;;;;1999.90;999.90;;;7.20;99.90;;;;;;5034072;28;20520;-66
2024/03/23 06:11:06;;;;;;;1999.90;999.90;;;7.20;99.90;;;;;;5033823;28;20033;-70
2024/03/23 06:13:33;;;;;;;1999.90;999.90;;;7.20;99.90;;;;;;5034088;28;20026;-70
2024/03/23 06:15:59;;;;;;;1999.90;999.90;;;7.30;99.90;;;;;;5034218;28;20147;-71
2024/03/23 06:18:25;;;;;;;1999.90;999.90;;;7.30;99.90;;;;;;5033792;28;20072;-71
2024/03/23 06:20:51;;;;;;;1999.90;999.90;;;7.40;99.90;;;;;;5033678;28;20072;-67
2024/03/23 06:23:17;;;;;;;1999.90;999.90;;;7.40;99.90;;;;;;5033393;28;20022;-66
2024/03/23 06:25:43;;;;;;;1999.90;999.90;;;7.40;99.90;;;;;;5032968;28;20037;-66
2024/03/23 06:28:08;;;;;;;1999.90;999.90;;;7.60;99.90;;;;;;5033451;28;20028;-70
2024/03/23 06:30:34;;;;;;;1999.90;999.90;;;7.70;99.90;;;;;;5033646;28;20480;-71
2024/03/23 06:33:00;;;;;;;1999.90;999.90;;;7.90;99.90;;;;;;5033532;28;20029;-66
2024/03/23 06:35:25;;;;;;;1999.90;999.90;;;8.10;99.90;;;;;;5033586;28;20484;-66
2024/03/23 06:37:51;;;;;;;1999.90;999.90;;;8.30;99.90;;;;;;5033194;28;20029;-66
2024/03/23 06:40:16;;;;;;;1999.90;999.90;;;8.40;99.90;;;;;;5033389;28;20034;-71
2024/03/23 06:42:42;;;;;;;1999.90;999.90;;;8.50;99.90;;;;;;5033622;28;20044;-66
2024/03/23 06:45:08;;;;;;;1999.90;999.90;;;8.60;99.90;;;;;;5032975;28;20400;-71
2024/03/23 06:47:34;;;;;;;1999.90;999.90;;;8.70;99.90;;;;;;5033637;28;20021;-67
2024/03/23 06:50:03;;;;;;;1999.90;999.90;;;8.90;99.90;;;;;;5033131;28;20037;-66
2024/03/23 06:52:29;;;;;;;1999.90;999.90;;;9.10;99.90;;;;;;5032457;28;20053;-70
2024/03/23 06:54:55;;;;;;;1999.90;999.90;;;9.40;99.90;;;;;;5032960;28;20064;-71
2024/03/23 06:57:20;;;;;;;1999.90;999.90;;;9.60;99.90;;;;;;5033368;28;20053;-71
2024/03/23 06:59:46;;;;;;;1999.90;999.90;;;9.60;99.90;;;;;;5033276;28;20051;-67
2024/03/23 07:02:12;;;;;;;1999.90;999.90;;;9.60;99.90;;;;;;5032144;28;20021;-67
2024/03/23 07:04:39;;;;;;;1999.90;999.90;;;9.70;99.90;;;;;;5033054;28;20448;-71
2024/03/23 07:07:05;;;;;;;1999.90;999.90;;;9.80;99.90;;;;;;5032784;28;20029;-71
2024/03/23 07:09:31;;;;;;;1999.90;999.90;;;9.90;99.90;;;;;;5032905;28;20488;-67
2024/03/23 07:11:57;;;;;;;1999.90;999.90;;;9.90;99.90;;;;;;5032960;28;20032;-71
2024/03/23 07:14:23;;;;;;;1999.90;999.90;;;10.00;99.90;;;;;;5032716;28;20032;-67
2024/03/23 07:16:49;;;;;;;1999.90;999.90;;;10.20;99.90;;;;;;5033117;28;20049;-71
2024/03/23 07:19:16;;;;;;;1999.90;999.90;;;10.50;99.90;;;;;;5032543;28;20064;-67
2024/03/23 07:21:45;;;;;;;1999.90;999.90;;;10.50;99.90;;;;;;5032718;28;20163;-67
2024/03/23 07:24:11;;;;;;;1999.90;999.90;;;10.50;99.90;;;;;;5031938;28;20515;-71
2024/03/23 07:26:37;;;;;;;1999.90;999.90;;;10.70;99.90;;;;;;5031778;28;20041;-71
2024/03/23 07:29:04;;;;;;;1999.90;999.90;;;10.80;99.90;;;;;;5032667;28;20108;-67
2024/03/23 07:31:30;;;;;;;1999.90;999.90;;;10.90;99.90;;;;;;5032728;28;20087;-67
2024/03/23 07:33:55;;;;;;;1999.90;999.90;;;10.90;99.90;;;;;;5032927;28;20037;-71
2024/03/23 07:36:21;;;;;;;1999.90;999.90;;;10.80;99.90;;;;;;5032110;28;20039;-67
2024/03/23 07:38:47;;;;;;;1999.90;999.90;;;10.70;99.90;;;;;;5033074;28;20025;-67
2024/03/23 07:41:19;;;;;;;1999.90;999.90;;;10.70;99.90;;;;;;5032382;28;20025;-71
2024/03/23 07:43:45;;;;;;;1999.90;999.90;;;11.30;99.90;;;;;;5032983;28;20443;-71
2024/03/23 07:46:14;;;;;;;1999.90;999.90;;;11.20;99.90;;;;;;5032411;28;20033;-71
2024/03/23 07:48:42;;;;;;;1999.90;999.90;;;11.20;99.90;;;;;;5032588;28;20026;-67
2024/03/23 07:51:09;;;;;;;1999.90;999.90;;;11.20;99.90;;;;;;5032684;28;20117;-67
2024/03/23 07:53:37;;;;;;;1999.90;999.90;;;11.30;99.90;;;;;;5032775;28;20026;-67
2024/03/23 07:56:08;;;;;;;1999.90;999.90;;;11.50;99.90;;;;;;5031979;28;20488;-71
2024/03/23 07:58:34;;;;;;;1999.90;999.90;;;11.70;99.90;;;;;;5032608;28;20033;-71
2024/03/23 08:01:10;;;;;;;1999.90;999.90;;;11.90;99.90;;;;;;5032375;28;20484;-67
2024/03/23 08:03:37;;;;;;;1999.90;999.90;;;12.10;99.90;;;;;;5032617;28;20047;-71
2024/03/23 08:06:09;;;;;;;1999.90;999.90;;;12.70;99.90;;;;;;5032492;28;20022;-72
2024/03/23 08:08:35;;;;;;;1999.90;999.90;;;15.70;99.90;;;;;;5032432;28;20414;-72
2024/03/23 08:11:01;;;;;;;1999.90;999.90;;;18.20;99.90;;;;;;5032226;28;20029;-68
2024/03/23 08:13:27;;;;;;;1999.90;999.90;;;20.10;99.90;;;;;;5032286;28;20037;-68
2024/03/23 08:15:56;;;;;;;1999.90;999.90;;;21.90;99.90;;;;;;5032437;28;20032;-68
2024/03/23 08:18:22;;;;;;;1999.90;999.90;;;21.60;99.90;;;;;;5031428;28;20053;-70
2024/03/23 08:20:54;;;;;;;1999.90;999.90;;;21.40;99.90;;;;;;5031829;28;20088;-66
2024/03/23 08:23:20;;;;;;;1999.90;999.90;;;22.80;99.90;;;;;;5031868;28;20026;-66
2024/03/23 08:25:46;;;;;;;1999.90;999.90;;;23.30;99.90;;;;;;5031247;28;20034;-66
2024/03/23 08:28:11;;;;;;;1999.90;999.90;;;23.60;99.90;;;;;;5032019;28;20041;-66
2024/03/23 08:30:37;;;;;;;1999.90;999.90;;;21.80;99.90;;;;;;5032383;28;20097;-70
2024/03/23 08:33:02;;;;;;;1999.90;999.90;;;21.40;99.90;;;;;;5031618;28;20104;-66
2024/03/23 08:35:28;;;;;;;1999.90;999.90;;;20.20;99.90;;;;;;5032308;28;20034;-70
2024/03/23 08:37:54;;;;;;;1999.90;999.90;;;19.10;99.90;;;;;;5032270;28;20072;-66
2024/03/23 08:40:19;;;;;;;1999.90;999.90;;;20.00;99.90;;;;;;5035711;28;20069;-66
2024/03/23 08:42:45;;;;;;;1999.90;999.90;;;21.40;99.90;;;;;;5035831;28;20018;-70
2024/03/23 08:45:10;;;;;;;1999.90;999.90;;;23.00;99.90;;;;;;5035419;28;20489;-70
2024/03/23 08:47:36;;;;;;;1999.90;999.90;;;23.60;99.90;;;;;;5035475;28;20025;-70
2024/03/23 08:50:02;;;;;;;1999.90;999.90;;;23.40;99.90;;;;;;5035292;28;20022;-67
2024/03/23 08:52:29;;;;;;;1999.90;999.90;;;23.70;99.90;;;;;;5035506;28;20030;-67
2024/03/23 08:54:56;;;;;;;1999.90;999.90;;;23.70;99.90;;;;;;5035472;28;20021;-67
2024/03/23 08:57:22;;;;;;;1999.90;999.90;;;21.10;99.90;;;;;;5035302;28;20038;-66
2024/03/23 08:59:48;;;;;;;1999.90;999.90;;;18.70;99.90;;;;;;5035387;28;20037;-66
2024/03/23 09:02:14;;;;;;;1999.90;999.90;;;17.80;99.90;;;;;;5034913;28;20033;-67
2024/03/23 09:04:39;;;;;;;1999.90;999.90;;;20.40;99.90;;;;;;5035049;28;20022;-70
2024/03/23 09:07:05;;;;;;;1999.90;999.90;;;22.30;99.90;;;;;;5035169;28;20400;-67
2024/03/23 09:09:30;;;;;;;1999.90;999.90;;;23.70;99.90;;;;;;5034375;28;20087;-70
2024/03/23 09:11:56;;;;;;;1999.90;999.90;;;23.10;99.90;;;;;;5035059;28;20475;-67
2024/03/23 09:14:22;;;;;;;1999.90;999.90;;;21.30;99.90;;;;;;5035002;28;20028;-67
2024/03/23 09:16:50;;;;;;;1999.90;999.90;;;21.60;99.90;;;;;;5035199;28;20120;-70
2024/03/23 09:19:17;;;;;;;1999.90;999.90;;;22.90;99.90;;;;;;5034821;28;20542;-67
2024/03/23 09:21:43;;;;;;;1999.90;999.90;;;22.80;99.90;;;;;;5034656;28;20116;-70
2024/03/23 09:24:08;;;;;;;1999.90;999.90;;;23.20;99.90;;;;;;5034412;28;20093;-67
2024/03/23 09:26:34;;;;;;;1999.90;999.90;;;23.80;99.90;;;;;;5033925;28;20033;-67
2024/03/23 09:29:00;;;;;;;1999.90;999.90;;;23.00;99.90;;;;;;5033716;28;20083;-66
2024/03/23 09:31:25;;;;;;;1999.90;999.90;;;20.90;99.90;;;;;;5034717;28;20029;-70
2024/03/23 09:33:51;;;;;;;1999.90;999.90;;;18.00;99.90;;;;;;5034770;28;20381;-71
2024/03/23 09:36:16;;;;;;;1999.90;999.90;;;17.30;99.90;;;;;;5034344;28;20103;-71
2024/03/23 09:38:42;;;;;;;1999.90;999.90;;;16.80;99.90;;;;;;5034720;28;20071;-68
2024/03/23 09:41:12;;;;;;;1999.90;999.90;;;17.60;99.90;;;;;;5034386;28;20037;-72
2024/03/23 09:43:38;;;;;;;1999.90;999.90;;;17.90;99.90;;;;;;5034678;28;20021;-68
2024/03/23 09:46:03;;;;;;;1999.90;999.90;;;17.10;99.90;;;;;;5034655;28;20511;-68
2024/03/23 09:48:30;;;;;;;1999.90;999.90;;;16.50;99.90;;;;;;5034195;28;20032;-71
2024/03/23 09:50:55;;;;;;;1999.90;999.90;;;16.90;99.90;;;;;;5034343;28;20049;-68
2024/03/23 09:53:22;;;;;;;1999.90;999.90;;;16.30;99.90;;;;;;5034301;28;20392;-71
2024/03/23 09:55:48;;;;;;;1999.90;999.90;;;15.10;99.90;;;;;;5034326;28;20061;-71
2024/03/23 09:58:18;;;;;;;1999.90;999.90;;;14.30;99.90;;;;;;5034321;28;20057;-71
2024/03/23 10:00:45;;;;;;;1999.90;999.90;;;14.20;99.90;;;;;;5034346;28;20428;-71
2024/03/23 10:03:11;;;;;;;1999.90;999.90;;;14.40;99.90;;;;;;5033974;28;20079;-67
2024/03/23 10:05:37;;;;;;;1999.90;999.90;;;14.10;99.90;;;;;;5033386;28;20033;-71
2024/03/23 10:08:15;;;;;;;1999.90;999.90;;;14.60;99.90;;;;;;5034090;28;20103;-71
2024/03/23 10:10:41;;;;;;;1999.90;999.90;;;14.00;99.90;;;;;;5034317;28;20025;-67
2024/03/23 10:13:07;;;;;;;1999.90;999.90;;;14.10;99.90;;;;;;5034054;28;20025;-70
2024/03/23 10:15:36;;;;;;;1999.90;999.90;;;14.20;99.90;;;;;;5033961;28;20037;-71
2024/03/23 10:18:21;;;;;;;1999.90;999.90;;;14.70;99.90;;;;;;5033856;28;20050;-67
2024/03/23 10:21:08;;;;;;;1999.90;999.90;;;14.50;99.90;;;;;;5033857;28;20120;-71
2024/03/23 10:23:34;;;;;;;1999.90;999.90;;;15.00;99.90;;;;;;5026432;28;20029;-70
2024/03/23 10:26:14;;;;;;;1999.90;999.90;;;14.80;99.90;;;;;;5032978;28;20033;-71
2024/03/23 10:29:03;;;;;;;1999.90;999.90;;;15.20;99.90;;;;;;5033619;28;20022;-70
2024/03/23 10:31:30;;;;;;;1999.90;999.90;;;14.30;99.90;;;;;;5033546;28;20497;-70
2024/03/23 10:33:56;;;;;;;1999.90;999.90;;;14.60;99.90;;;;;;5033521;28;20053;-71
2024/03/23 10:36:23;;;;;;;1999.90;999.90;;;14.70;99.90;;;;;;5033121;28;20543;-71
2024/03/23 10:38:54;;;;;;;1999.90;999.90;;;14.90;99.90;;;;;;5033416;28;20033;-67
2024/03/23 10:41:19;;;;;;;1999.90;999.90;;;14.40;99.90;;;;;;5033355;28;20036;-67
2024/03/23 10:43:46;;;;;;;1999.90;999.90;;;14.40;99.90;;;;;;5033369;28;20021;-67
2024/03/23 10:46:13;;;;;;;1999.90;999.90;;;14.60;99.90;;;;;;5033360;28;20049;-71
2024/03/23 10:48:38;;;;;;;1999.90;999.90;;;14.80;99.90;;;;;;5033546;28;20021;-70
2024/03/23 10:51:07;;;;;;;1999.90;999.90;;;14.60;99.90;;;;;;5033465;28;20036;-70
2024/03/23 10:53:34;;;;;;;1999.90;999.90;;;14.50;99.90;;;;;;5033270;28;20022;-67
2024/03/23 10:56:00;;;;;;;1999.90;999.90;;;14.80;99.90;;;;;;5033352;28;20075;-67
2024/03/23 10:58:52;;;;;;;1999.90;999.90;;;14.50;99.90;;;;;;5033351;28;20438;-71
2024/03/23 11:01:18;;;;;;;1999.90;999.90;;;14.40;99.90;;;;;;5032323;28;20101;-71
2024/03/23 11:03:47;;;;;;;1999.90;999.90;;;14.50;99.90;;;;;;5033329;28;20018;-71
2024/03/23 11:06:36;;;;;;;1999.90;999.90;;;14.40;99.90;;;;;;5032782;28;20063;-67
2024/03/23 11:09:02;;;;;;;1999.90;999.90;;;14.30;99.90;;;;;;5032728;28;20046;-67
2024/03/23 11:11:30;;;;;;;1999.90;999.90;;;14.40;99.90;;;;;;5033126;28;20068;-71
2024/03/23 11:13:57;;;;;;;1999.90;999.90;;;14.20;99.90;;;;;;5032934;28;20057;-71
2024/03/23 11:16:27;;;;;;;1999.90;999.90;;;14.00;99.90;;;;;;5033018;28;20109;-70
2024/03/23 11:18:52;;;;;;;1999.90;999.90;;;14.10;99.90;;;;;;5032375;28;20589;-70
2024/03/23 11:21:56;;;;;;;1999.90;999.90;;;14.50;99.90;;;;;;5032699;28;20045;-67
2024/03/23 11:24:22;;;;;;;1999.90;999.90;;;14.60;99.90;;;;;;5012774;28;20037;-70
2024/03/23 11:26:48;;;;;;;1999.90;999.90;;;14.40;99.90;;;;;;5013346;28;20030;-70
2024/03/23 11:29:16;;;;;;;1999.90;999.90;;;14.40;99.90;;;;;;5022456;28;20542;-67
2024/03/23 11:31:49;;;;;;;1999.90;999.90;;;14.50;99.90;;;;;;5032953;28;20026;-67
2024/03/23 11:34:15;;;;;;;1999.90;999.90;;;14.30;99.90;;;;;;5032915;28;20025;-67
2024/03/23 11:36:42;;;;;;;1999.90;999.90;;;14.00;99.90;;;;;;5032337;28;20029;-71
2024/03/23 11:39:18;;;;;;;1999.90;999.90;;;14.00;99.90;;;;;;5032782;28;20114;-70
2024/03/23 11:41:56;;;;;;;1999.90;999.90;;;13.80;99.90;;;;;;5032541;28;20025;-67
2024/03/23 11:44:23;;;;;;;1999.90;999.90;;;14.30;99.90;;;;;;5032658;28;20035;-71
2024/03/23 11:46:49;;;;;;;1999.90;999.90;;;14.60;99.90;;;;;;5032769;28;20018;-67
2024/03/23 11:49:24;;;;;;;1999.90;999.90;;;14.40;99.90;;;;;;5032422;28;20623;-71
2024/03/23 11:51:50;;;;;;;1999.90;999.90;;;14.50;99.90;;;;;;5032847;28;20026;-67
2024/03/23 11:54:16;;;;;;;1999.90;999.90;;;14.40;99.90;;;;;;5032662;28;20060;-71
2024/03/23 11:56:57;;;;;;;1999.90;999.90;;;14.40;99.90;;;;;;5032763;28;20029;-67
2024/03/23 11:59:40;;;;;;;1999.90;999.90;;;14.50;99.90;;;;;;5032411;28;20084;-67
2024/03/23 12:02:15;;;;;;;1999.90;999.90;;;14.30;99.90;;;;;;5032403;28;20047;-67